createdAt,value
2023-04-08T00:00:23.868Z,100424.78
2023-04-08T00:01:06.702Z,100445.88
2023-04-08T00:01:46.881Z,100433.59
2023-04-08T00:02:49.770Z,100457.88
2023-04-08T00:03:43.814Z,100459.59
2023-04-08T00:04:37.819Z,100435.56
2023-04-08T00:05:17.751Z,100447.00
2023-04-08T00:05:57.833Z,100457.41
2023-04-08T00:06:38.709Z,100441.19
2023-04-08T00:07:18.845Z,100454.69
2023-04-08T00:07:58.702Z,100443.81
2023-04-08T00:08:38.855Z,100440.34
2023-04-08T00:09:18.735Z,100439.97
2023-04-08T00:09:58.781Z,100435.34
2023-04-08T00:10:39.714Z,100439.00
2023-04-08T00:11:19.824Z,100450.25
2023-04-08T00:11:59.740Z,100434.84
2023-04-08T00:12:39.806Z,100443.00
2023-04-08T00:13:21.696Z,100426.22
2023-04-08T00:14:01.851Z,100447.94
2023-04-08T00:14:42.683Z,100460.66
2023-04-08T00:15:22.791Z,100452.06
2023-04-08T00:16:02.714Z,100470.31
2023-04-08T00:16:42.794Z,100465.16
2023-04-08T00:17:23.753Z,100466.88
2023-04-08T00:18:03.817Z,100453.13
2023-04-08T00:18:44.664Z,100467.22
2023-04-08T00:19:25.247Z,100461.94
2023-04-08T00:20:06.698Z,100459.88
2023-04-08T00:20:46.773Z,100458.19
2023-04-08T00:21:27.714Z,100448.81
2023-04-08T00:22:08.224Z,100462.63
2023-04-08T00:22:48.681Z,100466.53
2023-04-08T00:23:28.779Z,100468.50
2023-04-08T00:24:08.670Z,100465.53
2023-04-08T00:24:48.807Z,100464.75
2023-04-08T00:25:28.770Z,100469.56
2023-04-08T00:26:08.785Z,100466.56
2023-04-08T00:26:48.721Z,100464.50
2023-04-08T00:27:28.782Z,100444.97
2023-04-08T00:28:08.671Z,100479.03
2023-04-08T00:28:49.895Z,100469.34
2023-04-08T00:29:29.666Z,100471.44
2023-04-08T00:30:11.643Z,100475.56
2023-04-08T00:30:52.730Z,100484.81
2023-04-08T00:31:32.910Z,100466.31
2023-04-08T00:32:13.694Z,100464.63
2023-04-08T00:32:53.807Z,100461.19
2023-04-08T00:33:33.668Z,100468.75
2023-04-08T00:34:13.767Z,100482.09
2023-04-08T00:34:53.661Z,100452.19
2023-04-08T00:35:33.791Z,100476.03
2023-04-08T00:36:14.660Z,100484.94
2023-04-08T00:36:54.765Z,100468.88
2023-04-08T00:37:34.668Z,100483.41
2023-04-08T00:38:14.734Z,100476.41
2023-04-08T00:38:55.658Z,100482.72
2023-04-08T00:39:35.780Z,100476.41
2023-04-08T00:40:16.661Z,100478.00
2023-04-08T00:40:56.800Z,100447.78
2023-04-08T00:41:37.666Z,100484.75
2023-04-08T00:42:17.799Z,100493.47
2023-04-08T00:42:57.665Z,100472.72
2023-04-08T00:43:37.799Z,100469.72
2023-04-08T00:44:18.636Z,100469.81
2023-04-08T00:44:58.798Z,100497.16
2023-04-08T00:45:40.662Z,100498.25
2023-04-08T00:46:21.824Z,100473.69
2023-04-08T00:47:02.674Z,100471.78
2023-04-08T00:47:43.998Z,100493.19
2023-04-08T00:48:24.670Z,100504.38
2023-04-08T00:49:04.821Z,100499.22
2023-04-08T00:49:44.645Z,100485.47
2023-04-08T00:50:25.888Z,100499.63
2023-04-08T00:51:05.647Z,100505.13
2023-04-08T00:51:45.913Z,100498.13
2023-04-08T00:52:26.666Z,100500.19
2023-04-08T00:53:06.743Z,100488.06
2023-04-08T00:53:46.665Z,100502.56
2023-04-08T00:54:26.783Z,100493.44
2023-04-08T00:55:06.641Z,100513.44
2023-04-08T00:55:46.840Z,100493.44
2023-04-08T00:56:27.629Z,100513.63
2023-04-08T00:57:07.787Z,100518.69
2023-04-08T00:57:48.624Z,100520.53
2023-04-08T00:58:29.219Z,100516.88
2023-04-08T00:59:10.659Z,100499.22
2023-04-08T00:59:50.765Z,100522.34
2023-04-08T01:00:31.656Z,100492.78
2023-04-08T01:01:21.762Z,100488.91
2023-04-08T01:02:52.781Z,100508.50
2023-04-08T01:03:46.863Z,100499.69
2023-04-08T01:04:37.712Z,100510.19
2023-04-08T01:05:47.730Z,100504.50
2023-04-08T01:06:48.647Z,100493.19
2023-04-08T01:07:43.757Z,100514.28
2023-04-08T01:08:24.666Z,100520.09
2023-04-08T01:09:06.717Z,100505.69
2023-04-08T01:09:55.701Z,100525.47
2023-04-08T01:10:42.943Z,100522.78
2023-04-08T01:11:22.639Z,100511.47
2023-04-08T01:12:03.722Z,100523.56
2023-04-08T01:12:50.627Z,100526.88
2023-04-08T01:13:26.835Z,100526.00
2023-04-08T01:14:16.624Z,100537.88
2023-04-08T01:14:52.231Z,100525.91
2023-04-08T01:15:35.695Z,100533.78
2023-04-08T01:16:09.815Z,100510.31
2023-04-08T01:16:45.079Z,100527.97
2023-04-08T01:17:26.643Z,100528.50
2023-04-08T01:18:02.785Z,100517.31
2023-04-08T01:18:36.921Z,100525.91
2023-04-08T01:19:29.615Z,100530.53
2023-04-08T01:20:06.768Z,100500.44
2023-04-08T01:20:49.646Z,100526.88
2023-04-08T01:21:30.707Z,100532.56
2023-04-08T01:22:34.621Z,100507.84
2023-04-08T01:23:29.689Z,100533.44
2023-04-08T01:24:24.635Z,100520.75
2023-04-08T01:25:12.764Z,100520.22
2023-04-08T01:26:00.643Z,100529.91
2023-04-08T01:26:40.716Z,100532.81
2023-04-08T01:27:21.622Z,100514.72
2023-04-08T01:28:02.774Z,100533.66
2023-04-08T01:28:43.607Z,100528.81
2023-04-08T01:29:24.684Z,100516.56
2023-04-08T01:30:06.599Z,100519.91
2023-04-08T01:30:48.809Z,100526.56
2023-04-08T01:31:29.680Z,100524.00
2023-04-08T01:32:11.021Z,100513.88
2023-04-08T01:32:51.642Z,100522.47
2023-04-08T01:33:32.686Z,100531.63
2023-04-08T01:34:13.619Z,100530.44
2023-04-08T01:34:54.708Z,100529.38
2023-04-08T01:35:35.624Z,100513.88
2023-04-08T01:36:15.858Z,100532.38
2023-04-08T01:36:57.969Z,100527.84
2023-04-08T01:37:39.707Z,100532.81
2023-04-08T01:38:24.612Z,100540.56
2023-04-08T01:39:07.728Z,100528.94
2023-04-08T01:39:42.175Z,100540.56
2023-04-08T01:40:25.621Z,100541.72
2023-04-08T01:41:00.687Z,100535.38
2023-04-08T01:41:36.730Z,100509.56
2023-04-08T01:42:18.614Z,100534.28
2023-04-08T01:42:57.708Z,100533.66
2023-04-08T01:43:32.284Z,100510.94
2023-04-08T01:44:13.616Z,100542.91
2023-04-08T01:44:48.343Z,100544.97
2023-04-08T01:45:24.131Z,100537.97
2023-04-08T01:46:05.601Z,100512.53
2023-04-08T01:46:39.754Z,100492.78
2023-04-08T01:47:14.102Z,100538.69
2023-04-08T01:47:54.610Z,100510.16
2023-04-08T01:48:28.718Z,100532.88
2023-04-08T01:49:02.923Z,100540.94
2023-04-08T01:49:43.580Z,100521.56
2023-04-08T01:50:17.709Z,100529.13
2023-04-08T01:50:52.656Z,100540.94
2023-04-08T01:51:33.593Z,100525.44
2023-04-08T01:52:07.727Z,100536.31
2023-04-08T01:52:43.420Z,100539.25
2023-04-08T01:53:24.619Z,100549.25
2023-04-08T01:53:58.717Z,100526.66
2023-04-08T01:54:32.438Z,100538.94
2023-04-08T01:55:13.598Z,100556.03
2023-04-08T01:55:48.711Z,100541.38
2023-04-08T01:56:23.173Z,100560.22
2023-04-08T01:57:04.594Z,100537.41
2023-04-08T01:57:41.676Z,100552.38
2023-04-08T01:58:22.556Z,100561.72
2023-04-08T01:59:05.605Z,100559.91
2023-04-08T01:59:42.668Z,100563.75
2023-04-08T02:00:21.579Z,100556.88
2023-04-08T02:01:03.593Z,100541.38
2023-04-08T02:01:37.832Z,100551.38
2023-04-08T02:02:12.739Z,100528.78
2023-04-08T02:02:53.827Z,100546.44
2023-04-08T02:03:29.014Z,100564.66
2023-04-08T02:04:04.427Z,100563.31
2023-04-08T02:04:45.712Z,100563.44
2023-04-08T02:05:20.744Z,100565.72
2023-04-08T02:05:55.440Z,100533.84
2023-04-08T02:06:36.580Z,100568.41
2023-04-08T02:07:11.659Z,100552.59
2023-04-08T02:07:48.171Z,100547.75
2023-04-08T02:08:28.572Z,100570.88
2023-04-08T02:09:02.986Z,100554.81
2023-04-08T02:09:37.379Z,100558.06
2023-04-08T02:10:18.670Z,100547.31
2023-04-08T02:10:52.874Z,100567.88
2023-04-08T02:11:26.385Z,100563.31
2023-04-08T02:12:07.585Z,100553.97
2023-04-08T02:12:41.706Z,100538.25
2023-04-08T02:13:15.440Z,100555.97
2023-04-08T02:13:56.568Z,100559.75
2023-04-08T02:14:31.136Z,100565.25
2023-04-08T02:15:06.004Z,100557.28
2023-04-08T02:15:49.598Z,100571.47
2023-04-08T02:16:29.709Z,100563.53
2023-04-08T02:17:12.447Z,100577.09
2023-04-08T02:18:07.606Z,100560.72
2023-04-08T02:18:43.681Z,100560.00
2023-04-08T02:19:31.158Z,100556.22
2023-04-08T02:20:30.567Z,100526.94
2023-04-08T02:21:26.576Z,100564.53
2023-04-08T02:22:12.303Z,100580.97
2023-04-08T02:23:33.579Z,100577.66
2023-04-08T02:24:08.651Z,100581.22
2023-04-08T02:24:56.560Z,100542.03
2023-04-08T02:25:31.009Z,100561.59
2023-04-08T02:26:21.551Z,100573.22
2023-04-08T02:27:02.576Z,100581.81
2023-04-08T02:27:43.647Z,100573.63
2023-04-08T02:28:25.550Z,100566.09
2023-04-08T02:29:06.710Z,100583.94
2023-04-08T02:29:47.567Z,100582.44
2023-04-08T02:30:28.651Z,100585.25
2023-04-08T02:31:09.586Z,100590.44
2023-04-08T02:31:50.731Z,100586.34
2023-04-08T02:32:31.618Z,100594.22
2023-04-08T02:33:11.747Z,100567.94
2023-04-08T02:33:52.561Z,100589.78
2023-04-08T02:34:32.618Z,100592.47
2023-04-08T02:35:13.536Z,100585.69
2023-04-08T02:35:57.687Z,100563.97
2023-04-08T02:36:39.575Z,100588.06
2023-04-08T02:37:19.653Z,100593.25
2023-04-08T02:37:59.568Z,100590.34
2023-04-08T02:38:39.641Z,100578.16
2023-04-08T02:39:19.557Z,100579.16
2023-04-08T02:39:59.682Z,100588.31
2023-04-08T02:40:41.543Z,100594.13
2023-04-08T02:41:22.622Z,100593.78
2023-04-08T02:42:02.530Z,100574.97
2023-04-08T02:42:42.658Z,100593.03
2023-04-08T02:43:23.575Z,100584.53
2023-04-08T02:44:04.627Z,100589.78
2023-04-08T02:44:44.526Z,100573.44
2023-04-08T02:45:25.649Z,100571.06
2023-04-08T02:46:09.556Z,100569.03
2023-04-08T02:46:49.626Z,100571.06
2023-04-08T02:47:29.554Z,100574.84
2023-04-08T02:48:10.741Z,100556.75
2023-04-08T02:48:50.780Z,100580.34
2023-04-08T02:49:30.827Z,100562.25
2023-04-08T02:50:11.540Z,100592.81
2023-04-08T02:50:51.654Z,100585.38
2023-04-08T02:51:32.519Z,100567.38
2023-04-08T02:52:12.641Z,100576.13
2023-04-08T02:52:52.533Z,100587.19
2023-04-08T02:53:32.630Z,100600.06
2023-04-08T02:54:12.554Z,100592.31
2023-04-08T02:54:52.604Z,100584.66
2023-04-08T02:55:32.546Z,100581.56
2023-04-08T02:56:13.637Z,100578.56
2023-04-08T02:56:53.535Z,100611.53
2023-04-08T02:57:33.654Z,100600.03
2023-04-08T02:58:13.535Z,100578.81
2023-04-08T02:58:55.264Z,100618.63
2023-04-08T02:59:35.539Z,100623.81
2023-04-08T03:00:16.879Z,100615.50
2023-04-08T03:00:56.556Z,100598.06
2023-04-08T03:01:37.724Z,100604.75
2023-04-08T03:02:17.687Z,100580.66
2023-04-08T03:02:58.755Z,100589.03
2023-04-08T03:03:38.575Z,100595.28
2023-04-08T03:04:18.641Z,100620.94
2023-04-08T03:04:58.525Z,100612.31
2023-04-08T03:05:39.631Z,100617.59
2023-04-08T03:06:19.549Z,100625.53
2023-04-08T03:07:00.753Z,100604.19
2023-04-08T03:07:40.510Z,100612.41
2023-04-08T03:08:20.893Z,100627.13
2023-04-08T03:09:00.542Z,100619.63
2023-04-08T03:09:40.616Z,100612.75
2023-04-08T03:10:20.614Z,100611.53
2023-04-08T03:11:01.610Z,100613.94
2023-04-08T03:11:41.505Z,100615.88
2023-04-08T03:12:21.649Z,100623.94
2023-04-08T03:13:01.552Z,100618.03
2023-04-08T03:13:41.590Z,100600.34
2023-04-08T03:14:21.509Z,100621.69
2023-04-08T03:15:03.473Z,100599.72
2023-04-08T03:15:43.536Z,100613.78
2023-04-08T03:16:23.654Z,100596.91
2023-04-08T03:17:03.526Z,100602.41
2023-04-08T03:17:43.745Z,100617.69
2023-04-08T03:18:32.486Z,100618.69
2023-04-08T03:19:06.571Z,100607.00
2023-04-08T03:19:53.501Z,100630.50
2023-04-08T03:20:27.590Z,100621.13
2023-04-08T03:21:09.550Z,100610.00
2023-04-08T03:21:49.614Z,100625.09
2023-04-08T03:22:30.526Z,100632.34
2023-04-08T03:23:10.775Z,100621.88
2023-04-08T03:23:51.514Z,100639.41
2023-04-08T03:24:31.572Z,100638.03
2023-04-08T03:25:12.497Z,100632.34
2023-04-08T03:25:52.578Z,100620.81
2023-04-08T03:26:33.527Z,100638.03
2023-04-08T03:27:14.160Z,100611.66
2023-04-08T03:27:54.507Z,100632.56
2023-04-08T03:28:34.604Z,100632.34
2023-04-08T03:29:15.515Z,100630.81
2023-04-08T03:29:57.725Z,100635.63
2023-04-08T03:30:38.505Z,100639.22
2023-04-08T03:31:21.185Z,100633.91
2023-04-08T03:32:02.542Z,100635.56
2023-04-08T03:32:42.605Z,100643.53
2023-04-08T03:33:22.491Z,100627.81
2023-04-08T03:34:02.569Z,100624.50
2023-04-08T03:34:42.504Z,100626.09
2023-04-08T03:35:22.682Z,100633.97
2023-04-08T03:36:02.496Z,100648.59
2023-04-08T03:36:42.610Z,100635.44
2023-04-08T03:37:23.521Z,100644.19
2023-04-08T03:38:03.588Z,100645.38
2023-04-08T03:38:43.471Z,100651.19
2023-04-08T03:39:24.561Z,100634.63
2023-04-08T03:40:04.535Z,100640.31
2023-04-08T03:40:44.626Z,100654.94
2023-04-08T03:41:24.499Z,100647.31
2023-04-08T03:42:04.595Z,100635.25
2023-04-08T03:42:45.507Z,100649.69
2023-04-08T03:43:26.101Z,100624.06
2023-04-08T03:44:07.490Z,100646.03
2023-04-08T03:44:47.653Z,100626.88
2023-04-08T03:45:28.481Z,100648.81
2023-04-08T03:46:08.644Z,100658.50
2023-04-08T03:46:48.467Z,100646.88
2023-04-08T03:47:28.610Z,100643.31
2023-04-08T03:48:08.574Z,100641.72
2023-04-08T03:48:49.052Z,100631.59
2023-04-08T03:49:29.483Z,100627.94
2023-04-08T03:50:09.560Z,100650.34
2023-04-08T03:50:49.481Z,100637.50
2023-04-08T03:51:29.656Z,100652.06
2023-04-08T03:52:09.482Z,100657.88
2023-04-08T03:52:49.544Z,100627.94
2023-04-08T03:53:29.501Z,100646.03
2023-04-08T03:54:09.624Z,100656.16
2023-04-08T03:54:49.484Z,100647.09
2023-04-08T03:55:29.575Z,100658.19
2023-04-08T03:56:10.458Z,100649.13
2023-04-08T03:56:50.853Z,100632.88
2023-04-08T03:57:30.469Z,100644.97
2023-04-08T03:58:10.572Z,100653.34
2023-04-08T03:58:50.659Z,100648.09
2023-04-08T03:59:33.832Z,100645.59
2023-04-08T04:00:14.475Z,100648.72
2023-04-08T04:00:54.554Z,100644.72
2023-04-08T04:01:35.482Z,100649.81
2023-04-08T04:02:15.816Z,100649.38
2023-04-08T04:02:55.559Z,100650.09
2023-04-08T04:03:35.808Z,100637.41
2023-04-08T04:04:15.649Z,100652.69
2023-04-08T04:04:55.624Z,100666.47
2023-04-08T04:05:36.438Z,100672.28
2023-04-08T04:06:16.581Z,100646.13
2023-04-08T04:06:56.482Z,100653.78
2023-04-08T04:07:36.553Z,100655.28
2023-04-08T04:08:16.454Z,100666.91
2023-04-08T04:08:56.556Z,100672.94
2023-04-08T04:09:36.482Z,100672.72
2023-04-08T04:10:16.619Z,100648.59
2023-04-08T04:10:58.451Z,100673.69
2023-04-08T04:11:38.546Z,100657.63
2023-04-08T04:12:18.435Z,100667.78
2023-04-08T04:12:58.579Z,100671.88
2023-04-08T04:13:38.471Z,100677.03
2023-04-08T04:14:18.547Z,100661.41
2023-04-08T04:14:58.537Z,100667.00
2023-04-08T04:15:38.531Z,100672.72
2023-04-08T04:16:18.542Z,100673.16
2023-04-08T04:16:58.578Z,100657.31
2023-04-08T04:17:38.446Z,100681.31
2023-04-08T04:18:18.556Z,100673.78
2023-04-08T04:19:00.558Z,100673.25
2023-04-08T04:19:41.550Z,100675.72
2023-04-08T04:20:22.480Z,100649.44
2023-04-08T04:21:02.545Z,100663.81
2023-04-08T04:21:42.443Z,100663.03
2023-04-08T04:22:22.522Z,100657.63
2023-04-08T04:23:02.437Z,100678.13
2023-04-08T04:23:42.592Z,100672.00
2023-04-08T04:24:22.434Z,100662.16
2023-04-08T04:25:02.530Z,100671.00
2023-04-08T04:25:42.618Z,100657.88
2023-04-08T04:26:22.536Z,100653.53
2023-04-08T04:27:03.457Z,100669.91
2023-04-08T04:27:43.800Z,100663.47
2023-04-08T04:28:24.444Z,100687.47
2023-04-08T04:29:04.529Z,100688.44
2023-04-08T04:29:44.427Z,100697.38
2023-04-08T04:30:24.508Z,100665.19
2023-04-08T04:31:04.504Z,100687.91
2023-04-08T04:31:44.558Z,100698.59
2023-04-08T04:32:25.452Z,100690.59
2023-04-08T04:33:05.747Z,100694.50
2023-04-08T04:33:45.444Z,100697.81
2023-04-08T04:34:25.585Z,100662.59
2023-04-08T04:35:05.439Z,100681.53
2023-04-08T04:35:46.627Z,100676.28
2023-04-08T04:36:26.479Z,100704.72
2023-04-08T04:37:06.587Z,100710.09
2023-04-08T04:37:46.419Z,100705.38
2023-04-08T04:38:27.046Z,100692.44
2023-04-08T04:39:07.458Z,100706.22
2023-04-08T04:39:47.603Z,100691.25
2023-04-08T04:40:27.442Z,100691.56
2023-04-08T04:41:07.531Z,100711.94
2023-04-08T04:41:47.467Z,100694.69
2023-04-08T04:42:27.517Z,100700.72
2023-04-08T04:43:07.421Z,100705.47
2023-04-08T04:43:47.487Z,100696.97
2023-04-08T04:44:27.409Z,100715.19
2023-04-08T04:45:07.504Z,100702.34
2023-04-08T04:45:47.490Z,100694.38
2023-04-08T04:46:27.591Z,100697.16
2023-04-08T04:47:07.454Z,100684.34
2023-04-08T04:47:47.528Z,100688.34
2023-04-08T04:48:27.413Z,100704.38
2023-04-08T04:49:07.533Z,100709.66
2023-04-08T04:49:47.405Z,100716.00
2023-04-08T04:50:27.544Z,100719.75
2023-04-08T04:51:09.394Z,100722.78
2023-04-08T04:51:49.522Z,100696.53
2023-04-08T04:52:30.443Z,100711.47
2023-04-08T04:53:10.684Z,100698.13
2023-04-08T04:53:50.434Z,100702.19
2023-04-08T04:54:30.672Z,100709.97
2023-04-08T04:55:11.415Z,100675.06
2023-04-08T04:55:51.556Z,100711.28
2023-04-08T04:56:33.422Z,100715.44
2023-04-08T04:57:13.491Z,100692.31
2023-04-08T04:57:53.406Z,100718.25
2023-04-08T04:58:33.467Z,100715.56
2023-04-08T04:59:15.410Z,100718.13
2023-04-08T04:59:55.493Z,100696.19
2023-04-08T05:00:35.397Z,100719.03
2023-04-08T05:01:15.642Z,100693.19
2023-04-08T05:01:55.486Z,100728.91
2023-04-08T05:02:35.776Z,100697.47
2023-04-08T05:03:15.482Z,100733.34
2023-04-08T05:03:56.505Z,100721.59
2023-04-08T05:04:37.401Z,100726.56
2023-04-08T05:05:17.519Z,100716.22
2023-04-08T05:05:59.415Z,100736.72
2023-04-08T05:06:40.487Z,100716.22
2023-04-08T05:07:20.420Z,100712.69
2023-04-08T05:08:00.703Z,100730.78
2023-04-08T05:08:40.430Z,100708.69
2023-04-08T05:09:20.777Z,100731.53
2023-04-08T05:10:01.395Z,100714.50
2023-04-08T05:10:42.047Z,100722.91
2023-04-08T05:11:24.412Z,100716.03
2023-04-08T05:12:04.592Z,100728.50
2023-04-08T05:12:45.404Z,100718.38
2023-04-08T05:13:25.513Z,100712.38
2023-04-08T05:14:05.424Z,100737.03
2023-04-08T05:14:46.252Z,100719.16
2023-04-08T05:15:27.402Z,100706.19
2023-04-08T05:16:07.632Z,100720.88
2023-04-08T05:16:48.397Z,100715.81
2023-04-08T05:17:28.608Z,100742.53
2023-04-08T05:18:09.452Z,100737.13
2023-04-08T05:18:49.698Z,100714.75
2023-04-08T05:19:30.487Z,100732.38
2023-04-08T05:20:11.536Z,100736.72
2023-04-08T05:20:52.394Z,100742.09
2023-04-08T05:21:32.689Z,100747.56
2023-04-08T05:22:12.389Z,100708.91
2023-04-08T05:22:52.492Z,100747.91
2023-04-08T05:23:32.381Z,100743.81
2023-04-08T05:24:12.462Z,100717.31
2023-04-08T05:24:52.417Z,100734.75
2023-04-08T05:25:32.541Z,100740.13
2023-04-08T05:26:16.461Z,100747.88
2023-04-08T05:26:57.785Z,100738.19
2023-04-08T05:27:37.411Z,100752.19
2023-04-08T05:28:17.497Z,100755.63
2023-04-08T05:28:58.388Z,100745.97
2023-04-08T05:29:38.495Z,100741.09
2023-04-08T05:30:19.397Z,100759.53
2023-04-08T05:31:00.520Z,100737.47
2023-04-08T05:31:40.412Z,100740.78
2023-04-08T05:32:20.539Z,100759.75
2023-04-08T05:33:01.410Z,100734.72
2023-04-08T05:33:41.471Z,100754.91
2023-04-08T05:34:22.388Z,100754.53
2023-04-08T05:35:02.472Z,100744.97
2023-04-08T05:35:44.535Z,100762.13
2023-04-08T05:36:26.352Z,100752.19
2023-04-08T05:37:06.361Z,100742.91
2023-04-08T05:37:49.438Z,100760.41
2023-04-08T05:38:33.472Z,100764.56
2023-04-08T05:39:13.519Z,100738.72
2023-04-08T05:39:54.395Z,100767.25
2023-04-08T05:40:37.470Z,100745.47
2023-04-08T05:41:22.926Z,100751.97
2023-04-08T05:42:03.470Z,100740.09
2023-04-08T05:42:43.362Z,100758.88
2023-04-08T05:43:23.524Z,100747.44
2023-04-08T05:44:04.362Z,100770.34
2023-04-08T05:44:46.546Z,100736.41
2023-04-08T05:45:27.379Z,100768.13
2023-04-08T05:46:24.923Z,100732.44
2023-04-08T05:47:04.471Z,100773.28
2023-04-08T05:47:44.559Z,100770.06
2023-04-08T05:48:25.401Z,100764.00
2023-04-08T05:49:05.503Z,100770.81
2023-04-08T05:49:45.368Z,100750.66
2023-04-08T05:50:25.462Z,100769.63
2023-04-08T05:51:05.370Z,100752.38
2023-04-08T05:51:46.513Z,100763.16
2023-04-08T05:52:27.375Z,100768.34
2023-04-08T05:53:07.499Z,100759.94
2023-04-08T05:53:48.367Z,100770.19
2023-04-08T05:54:28.444Z,100772.22
2023-04-08T05:55:08.376Z,100766.16
2023-04-08T05:55:48.433Z,100752.28
2023-04-08T05:56:29.366Z,100745.75
2023-04-08T05:57:10.493Z,100755.38
2023-04-08T05:57:50.405Z,100759.19
2023-04-08T05:58:30.648Z,100770.66
2023-04-08T05:59:11.354Z,100757.38
2023-04-08T05:59:53.299Z,100764.56
2023-04-08T06:00:34.343Z,100779.44
2023-04-08T06:01:14.474Z,100775.91
2023-04-08T06:01:54.422Z,100772.44
2023-04-08T06:02:34.582Z,100777.75
2023-04-08T06:03:14.837Z,100755.09
2023-04-08T06:03:58.517Z,100761.16
2023-04-08T06:04:39.514Z,100754.06
2023-04-08T06:05:19.455Z,100742.13
2023-04-08T06:05:59.334Z,100767.47
2023-04-08T06:06:40.497Z,100750.81
2023-04-08T06:07:20.339Z,100764.59
2023-04-08T06:08:00.549Z,100732.19
2023-04-08T06:08:41.356Z,100761.16
2023-04-08T06:09:21.503Z,100777.16
2023-04-08T06:10:02.322Z,100756.75
2023-04-08T06:10:42.453Z,100764.19
2023-04-08T06:11:22.350Z,100784.22
2023-04-08T06:12:03.590Z,100762.25
2023-04-08T06:12:47.326Z,100770.63
2023-04-08T06:13:27.421Z,100771.88
2023-04-08T06:14:07.365Z,100763.56
2023-04-08T06:14:47.414Z,100750.28
2023-04-08T06:15:28.347Z,100765.97
2023-04-08T06:16:21.146Z,100783.56
2023-04-08T06:17:57.469Z,100768.75
2023-04-08T06:18:37.429Z,100779.75
2023-04-08T06:19:24.351Z,100776.00
2023-04-08T06:20:21.664Z,100774.78
2023-04-08T06:21:15.409Z,100766.94
2023-04-08T06:22:18.327Z,100768.75
2023-04-08T06:23:12.362Z,100771.78
2023-04-08T06:24:06.346Z,100784.72
2023-04-08T06:25:17.404Z,100786.91
2023-04-08T06:26:11.334Z,100784.06
2023-04-08T06:27:07.874Z,100789.47
2023-04-08T06:28:07.354Z,100768.22
2023-04-08T06:29:01.334Z,100777.06
2023-04-08T06:30:03.058Z,100789.22
2023-04-08T06:30:43.377Z,100777.72
2023-04-08T06:32:06.344Z,100786.47
2023-04-08T06:32:46.450Z,100775.16
2023-04-08T06:33:33.435Z,100775.22
2023-04-08T06:34:13.316Z,100793.34
2023-04-08T06:34:54.418Z,100776.44
2023-04-08T06:35:34.360Z,100786.53
2023-04-08T06:36:29.375Z,100764.84
2023-04-08T06:37:23.342Z,100799.81
2023-04-08T06:38:18.328Z,100785.47
2023-04-08T06:39:12.329Z,100793.56
2023-04-08T06:40:06.325Z,100798.41
2023-04-08T06:41:01.418Z,100781.50
2023-04-08T06:41:48.320Z,100789.47
2023-04-08T06:42:23.197Z,100790.09
2023-04-08T06:43:10.324Z,100778.47
2023-04-08T06:43:45.876Z,100789.03
2023-04-08T06:44:35.357Z,100801.75
2023-04-08T06:45:09.419Z,100771.78
2023-04-08T06:45:59.475Z,100793.75
2023-04-08T06:46:33.404Z,100769.84
2023-04-08T06:47:13.337Z,100790.09
2023-04-08T06:47:56.367Z,100795.16
2023-04-08T06:48:39.304Z,100780.41
2023-04-08T06:49:19.428Z,100805.81
2023-04-08T06:50:00.350Z,100794.63
2023-04-08T06:50:44.101Z,100798.84
2023-04-08T06:51:28.351Z,100784.63
2023-04-08T06:52:14.358Z,100791.41
2023-04-08T06:52:56.343Z,100789.66
2023-04-08T06:53:36.427Z,100796.34
2023-04-08T06:54:16.306Z,100787.75
2023-04-08T06:54:57.510Z,100787.31
2023-04-08T06:55:38.326Z,100789.88
2023-04-08T06:56:18.431Z,100803.69
2023-04-08T06:56:59.327Z,100788.25
2023-04-08T06:57:39.420Z,100797.84
2023-04-08T06:58:19.311Z,100797.75
2023-04-08T06:58:59.381Z,100799.03
2023-04-08T06:59:39.499Z,100808.00
2023-04-08T07:00:20.646Z,100804.22
2023-04-08T07:01:02.442Z,100798.28
2023-04-08T07:01:42.477Z,100796.69
2023-04-08T07:02:23.365Z,100808.75
2023-04-08T07:03:03.485Z,100794.41
2023-04-08T07:03:43.462Z,100812.97
2023-04-08T07:04:23.453Z,100804.75
2023-04-08T07:05:04.273Z,100790.09
2023-04-08T07:05:44.643Z,100791.06
2023-04-08T07:06:24.461Z,100814.84
2023-04-08T07:07:04.410Z,100785.81
2023-04-08T07:07:44.275Z,100793.78
2023-04-08T07:08:24.372Z,100802.81
2023-04-08T07:09:05.335Z,100825.91
2023-04-08T07:09:46.474Z,100817.69
2023-04-08T07:10:27.321Z,100819.66
2023-04-08T07:11:07.802Z,100806.31
2023-04-08T07:11:48.350Z,100793.16
2023-04-08T07:12:28.374Z,100816.97
2023-04-08T07:13:09.324Z,100814.41
2023-04-08T07:13:49.455Z,100812.91
2023-04-08T07:14:29.307Z,100830.59
2023-04-08T07:15:09.418Z,100833.72
2023-04-08T07:15:49.304Z,100813.69
2023-04-08T07:16:29.395Z,100813.75
2023-04-08T07:17:10.321Z,100804.88
2023-04-08T07:17:50.502Z,100820.78
2023-04-08T07:18:30.295Z,100828.97
2023-04-08T07:19:10.751Z,100809.63
2023-04-08T07:19:50.310Z,100798.84
2023-04-08T07:20:41.170Z,100825.50
2023-04-08T07:21:37.269Z,100836.72
2023-04-08T07:22:17.382Z,100827.16
2023-04-08T07:22:57.284Z,100841.00
2023-04-08T07:23:37.442Z,100829.84
2023-04-08T07:24:17.376Z,100806.53
2023-04-08T07:25:04.293Z,100815.50
2023-04-08T07:25:58.256Z,100827.22
2023-04-08T07:26:52.287Z,100809.78
2023-04-08T07:27:48.296Z,100843.44
2023-04-08T07:28:42.308Z,100834.78
2023-04-08T07:29:36.294Z,100827.69
2023-04-08T07:30:23.360Z,100817.34
2023-04-08T07:30:57.475Z,100840.59
2023-04-08T07:31:44.284Z,100832.88
2023-04-08T07:32:18.467Z,100839.13
2023-04-08T07:33:06.357Z,100825.63
2023-04-08T07:33:40.541Z,100844.94
2023-04-08T07:34:27.255Z,100841.81
2023-04-08T07:35:01.396Z,100836.09
2023-04-08T07:35:49.440Z,100842.34
2023-04-08T07:36:23.340Z,100819.59
2023-04-08T07:37:10.288Z,100836.97
2023-04-08T07:37:44.423Z,100833.16
2023-04-08T07:38:31.269Z,100825.19
2023-04-08T07:39:05.400Z,100826.78
2023-04-08T07:39:53.269Z,100813.44
2023-04-08T07:40:27.338Z,100839.31
2023-04-08T07:41:14.273Z,100834.78
2023-04-08T07:41:48.381Z,100844.88
2023-04-08T07:42:35.283Z,100820.97
2023-04-08T07:43:09.741Z,100834.97
2023-04-08T07:43:56.279Z,100840.13
2023-04-08T07:44:30.526Z,100834.97
2023-04-08T07:45:18.275Z,100836.34
2023-04-08T07:45:52.483Z,100840.22
2023-04-08T07:46:45.297Z,100830.84
2023-04-08T07:47:19.344Z,100822.00
2023-04-08T07:48:07.401Z,100831.91
2023-04-08T07:48:42.542Z,100842.00
2023-04-08T07:49:30.258Z,100836.41
2023-04-08T07:50:04.338Z,100833.22
2023-04-08T07:51:09.017Z,100850.56
2023-04-08T07:51:44.553Z,100831.91
2023-04-08T07:52:24.291Z,100843.72
2023-04-08T07:53:08.438Z,100832.97
2023-04-08T07:53:48.259Z,100848.25
2023-04-08T07:54:28.395Z,100852.13
2023-04-08T07:55:09.281Z,100845.91